sensor_id;sensor_type;location;lat;lon;timestamp;temperature;humidity
16253;DHT22;8234;41.480;2.306;2023-02-28T00:00:38;7.10;99.90
16253;DHT22;8234;41.480;2.306;2023-02-28T00:10:44;6.60;99.90
16253;DHT22;8234;41.480;2.306;2023-02-28T00:20:47;6.50;99.90
16253;DHT22;8234;41.480;2.306;2023-02-28T00:30:53;6.10;99.90
16253;DHT22;8234;41.480;2.306;2023-02-28T00:40:56;6.40;99.90
16253;DHT22;8234;41.480;2.306;2023-02-28T00:51:02;6.70;99.90
16253;DHT22;8234;41.480;2.306;2023-02-28T01:01:06;6.80;99.90
16253;DHT22;8234;41.480;2.306;2023-02-28T01:11:13;7.10;99.90
16253;DHT22;8234;41.480;2.306;2023-02-28T01:21:20;7.00;99.90
16253;DHT22;8234;41.480;2.306;2023-02-28T01:31:25;7.20;99.90
16253;DHT22;8234;41.480;2.306;2023-02-28T01:41:32;7.30;99.90
16253;DHT22;8234;41.480;2.306;2023-02-28T01:51:41;7.40;99.90
16253;DHT22;8234;41.480;2.306;2023-02-28T02:01:53;7.30;99.90
16253;DHT22;8234;41.480;2.306;2023-02-28T02:11:59;7.80;99.90
16253;DHT22;8234;41.480;2.306;2023-02-28T02:33:06;7.80;99.90
16253;DHT22;8234;41.480;2.306;2023-02-28T02:43:17;7.90;99.90
16253;DHT22;8234;41.480;2.306;2023-02-28T02:53:26;7.90;99.90
16253;DHT22;8234;41.480;2.306;2023-02-28T03:03:33;7.80;99.90
16253;DHT22;8234;41.480;2.306;2023-02-28T03:13:59;8.30;99.90
16253;DHT22;8234;41.480;2.306;2023-02-28T03:24:12;8.30;99.90
16253;DHT22;8234;41.480;2.306;2023-02-28T03:34:21;8.10;99.90
16253;DHT22;8234;41.480;2.306;2023-02-28T03:44:30;7.80;99.90
16253;DHT22;8234;41.480;2.306;2023-02-28T03:54:38;7.50;99.90
16253;DHT22;8234;41.480;2.306;2023-02-28T04:04:44;7.50;99.90
16253;DHT22;8234;41.480;2.306;2023-02-28T04:14:51;7.40;99.90
16253;DHT22;8234;41.480;2.306;2023-02-28T04:24:56;7.50;99.90
16253;DHT22;8234;41.480;2.306;2023-02-28T04:35:00;7.30;99.90
16253;DHT22;8234;41.480;2.306;2023-02-28T04:45:07;7.50;99.90
16253;DHT22;8234;41.480;2.306;2023-02-28T04:55:13;7.70;99.90
16253;DHT22;8234;41.480;2.306;2023-02-28T05:05:18;7.60;99.90
16253;DHT22;8234;41.480;2.306;2023-02-28T05:15:22;7.70;99.90
16253;DHT22;8234;41.480;2.306;2023-02-28T05:25:27;7.60;99.90
16253;DHT22;8234;41.480;2.306;2023-02-28T05:35:31;7.50;99.90
16253;DHT22;8234;41.480;2.306;2023-02-28T05:45:37;7.70;99.90
16253;DHT22;8234;41.480;2.306;2023-02-28T05:55:41;7.50;99.90
16253;DHT22;8234;41.480;2.306;2023-02-28T06:05:46;7.70;99.90
16253;DHT22;8234;41.480;2.306;2023-02-28T06:15:50;7.60;99.90
16253;DHT22;8234;41.480;2.306;2023-02-28T06:25:55;7.70;99.90
16253;DHT22;8234;41.480;2.306;2023-02-28T06:36:00;7.90;99.90
16253;DHT22;8234;41.480;2.306;2023-02-28T06:46:07;8.00;99.90
16253;DHT22;8234;41.480;2.306;2023-02-28T06:56:13;8.00;99.90
16253;DHT22;8234;41.480;2.306;2023-02-28T07:06:18;7.90;99.90
16253;DHT22;8234;41.480;2.306;2023-02-28T07:16:25;7.80;99.90
16253;DHT22;8234;41.480;2.306;2023-02-28T07:26:33;8.20;99.90
16253;DHT22;8234;41.480;2.306;2023-02-28T07:36:37;8.30;99.90
16253;DHT22;8234;41.480;2.306;2023-02-28T07:46:42;8.50;99.90
16253;DHT22;8234;41.480;2.306;2023-02-28T07:56:46;8.20;99.90
16253;DHT22;8234;41.480;2.306;2023-02-28T08:06:51;8.20;99.90
16253;DHT22;8234;41.480;2.306;2023-02-28T08:16:55;8.50;99.90
16253;DHT22;8234;41.480;2.306;2023-02-28T08:27:00;8.50;99.90
16253;DHT22;8234;41.480;2.306;2023-02-28T08:37:04;8.80;99.90
16253;DHT22;8234;41.480;2.306;2023-02-28T08:47:09;9.10;99.90
16253;DHT22;8234;41.480;2.306;2023-02-28T08:57:13;8.80;99.90
16253;DHT22;8234;41.480;2.306;2023-02-28T09:07:18;9.10;99.90
16253;DHT22;8234;41.480;2.306;2023-02-28T09:17:22;9.00;99.90
16253;DHT22;8234;41.480;2.306;2023-02-28T09:27:33;9.50;99.90
16253;DHT22;8234;41.480;2.306;2023-02-28T09:37:37;9.70;99.90
16253;DHT22;8234;41.480;2.306;2023-02-28T09:47:44;9.60;99.90
16253;DHT22;8234;41.480;2.306;2023-02-28T09:57:50;9.90;99.90
16253;DHT22;8234;41.480;2.306;2023-02-28T10:08:05;10.10;99.90
16253;DHT22;8234;41.480;2.306;2023-02-28T10:18:13;10.80;99.90
16253;DHT22;8234;41.480;2.306;2023-02-28T10:28:19;11.10;99.90
16253;DHT22;8234;41.480;2.306;2023-02-28T10:38:27;12.10;99.90
16253;DHT22;8234;41.480;2.306;2023-02-28T10:48:36;11.70;99.90
16253;DHT22;8234;41.480;2.306;2023-02-28T10:58:50;11.20;99.90
16253;DHT22;8234;41.480;2.306;2023-02-28T11:08:57;12.30;99.90
16253;DHT22;8234;41.480;2.306;2023-02-28T11:19:02;12.90;99.90
16253;DHT22;8234;41.480;2.306;2023-02-28T11:29:19;13.00;99.90
16253;DHT22;8234;41.480;2.306;2023-02-28T11:39:24;12.80;99.90
16253;DHT22;8234;41.480;2.306;2023-02-28T11:49:38;13.20;99.90
16253;DHT22;8234;41.480;2.306;2023-02-28T11:59:54;13.10;99.90
16253;DHT22;8234;41.480;2.306;2023-02-28T12:10:06;13.80;99.90
16253;DHT22;8234;41.480;2.306;2023-02-28T12:20:25;14.30;99.90
16253;DHT22;8234;41.480;2.306;2023-02-28T12:30:33;14.10;99.90
16253;DHT22;8234;41.480;2.306;2023-02-28T12:40:44;14.30;99.90
16253;DHT22;8234;41.480;2.306;2023-02-28T12:50:51;14.70;99.90
16253;DHT22;8234;41.480;2.306;2023-02-28T13:01:21;14.70;99.90
16253;DHT22;8234;41.480;2.306;2023-02-28T13:11:34;15.60;99.90
16253;DHT22;8234;41.480;2.306;2023-02-28T13:21:43;16.10;99.90
16253;DHT22;8234;41.480;2.306;2023-02-28T13:42:35;20.20;99.90
16253;DHT22;8234;41.480;2.306;2023-02-28T13:52:44;21.30;99.90
16253;DHT22;8234;41.480;2.306;2023-02-28T14:03:25;19.90;99.90
16253;DHT22;8234;41.480;2.306;2023-02-28T14:13:42;20.70;99.90
16253;DHT22;8234;41.480;2.306;2023-02-28T14:34:43;21.10;99.90
16253;DHT22;8234;41.480;2.306;2023-02-28T14:44:54;19.30;99.90
16253;DHT22;8234;41.480;2.306;2023-02-28T14:55:01;21.80;99.90
16253;DHT22;8234;41.480;2.306;2023-02-28T15:05:24;20.80;99.90
16253;DHT22;8234;41.480;2.306;2023-02-28T15:15:39;22.40;99.90
16253;DHT22;8234;41.480;2.306;2023-02-28T15:26:02;18.40;99.90
16253;DHT22;8234;41.480;2.306;2023-02-28T15:36:14;15.80;99.90
16253;DHT22;8234;41.480;2.306;2023-02-28T15:46:19;15.10;99.90
16253;DHT22;8234;41.480;2.306;2023-02-28T15:56:26;14.80;99.90
16253;DHT22;8234;41.480;2.306;2023-02-28T16:06:37;18.20;99.90
16253;DHT22;8234;41.480;2.306;2023-02-28T16:16:48;18.00;99.90
16253;DHT22;8234;41.480;2.306;2023-02-28T16:26:54;17.80;99.90
16253;DHT22;8234;41.480;2.306;2023-02-28T16:37:00;16.70;99.90
16253;DHT22;8234;41.480;2.306;2023-02-28T16:47:04;15.20;99.90
16253;DHT22;8234;41.480;2.306;2023-02-28T16:57:18;15.00;99.90
16253;DHT22;8234;41.480;2.306;2023-02-28T17:07:22;14.40;99.90
16253;DHT22;8234;41.480;2.306;2023-02-28T17:17:28;14.10;99.90
16253;DHT22;8234;41.480;2.306;2023-02-28T17:27:33;13.80;99.90
16253;DHT22;8234;41.480;2.306;2023-02-28T17:37:39;14.10;99.90
16253;DHT22;8234;41.480;2.306;2023-02-28T17:47:45;13.60;99.90
16253;DHT22;8234;41.480;2.306;2023-02-28T17:57:51;13.40;99.90
16253;DHT22;8234;41.480;2.306;2023-02-28T18:07:55;13.30;99.90
16253;DHT22;8234;41.480;2.306;2023-02-28T18:18:00;13.10;99.90
16253;DHT22;8234;41.480;2.306;2023-02-28T18:28:04;13.00;99.90
16253;DHT22;8234;41.480;2.306;2023-02-28T18:38:13;12.80;99.90
16253;DHT22;8234;41.480;2.306;2023-02-28T18:48:17;12.80;99.90
16253;DHT22;8234;41.480;2.306;2023-02-28T18:58:23;12.60;99.90
16253;DHT22;8234;41.480;2.306;2023-02-28T19:08:27;12.40;99.90
16253;DHT22;8234;41.480;2.306;2023-02-28T19:18:32;12.00;99.90
16253;DHT22;8234;41.480;2.306;2023-02-28T19:28:36;11.70;99.90
16253;DHT22;8234;41.480;2.306;2023-02-28T19:38:42;11.10;99.90
16253;DHT22;8234;41.480;2.306;2023-02-28T19:48:46;10.90;99.90
16253;DHT22;8234;41.480;2.306;2023-02-28T19:58:52;10.80;99.90
16253;DHT22;8234;41.480;2.306;2023-02-28T20:08:56;10.60;99.90
16253;DHT22;8234;41.480;2.306;2023-02-28T20:19:01;10.60;99.90
16253;DHT22;8234;41.480;2.306;2023-02-28T20:29:06;10.90;99.90
16253;DHT22;8234;41.480;2.306;2023-02-28T20:39:12;10.40;99.90
16253;DHT22;8234;41.480;2.306;2023-02-28T20:49:16;10.20;99.90
16253;DHT22;8234;41.480;2.306;2023-02-28T20:59:21;9.70;99.90
16253;DHT22;8234;41.480;2.306;2023-02-28T21:09:25;9.60;99.90
16253;DHT22;8234;41.480;2.306;2023-02-28T21:19:31;9.20;99.90
16253;DHT22;8234;41.480;2.306;2023-02-28T21:29:35;8.90;99.90
16253;DHT22;8234;41.480;2.306;2023-02-28T21:39:40;8.90;99.90
16253;DHT22;8234;41.480;2.306;2023-02-28T21:49:44;8.70;99.90
16253;DHT22;8234;41.480;2.306;2023-02-28T21:59:49;8.40;99.90
16253;DHT22;8234;41.480;2.306;2023-02-28T22:09:53;8.00;99.90
16253;DHT22;8234;41.480;2.306;2023-02-28T22:19:58;8.10;99.90
16253;DHT22;8234;41.480;2.306;2023-02-28T22:30:02;8.20;99.90
16253;DHT22;8234;41.480;2.306;2023-02-28T22:40:09;7.90;99.90
16253;DHT22;8234;41.480;2.306;2023-02-28T22:50:13;7.80;99.90
16253;DHT22;8234;41.480;2.306;2023-02-28T23:00:19;7.80;99.90
16253;DHT22;8234;41.480;2.306;2023-02-28T23:10:23;7.80;99.90
16253;DHT22;8234;41.480;2.306;2023-02-28T23:20:28;7.10;99.90
16253;DHT22;8234;41.480;2.306;2023-02-28T23:30:32;6.80;99.90
16253;DHT22;8234;41.480;2.306;2023-02-28T23:40:41;6.60;99.90
16253;DHT22;8234;41.480;2.306;2023-02-28T23:50:45;6.50;99.90
